地図

経路データ

SID SEASON NUMBER BASIN SUBBASIN NAME ISO_TIME NATURE LAT LON WMO_WIND WMO_PRES WMO_AGENCY TRACK_TYPE DIST2LAND LANDFALL IFLAG USA_AGENCY USA_ATCF_ID USA_LAT USA_LON USA_RECORD USA_STATUS USA_WIND USA_PRES USA_SSHS USA_R34_NE USA_R34_SE USA_R34_SW USA_R34_NW USA_R50_NE USA_R50_SE USA_R50_SW USA_R50_NW USA_R64_NE USA_R64_SE USA_R64_SW USA_R64_NW USA_POCI USA_ROCI USA_RMW USA_EYE TOKYO_LAT TOKYO_LON TOKYO_GRADE TOKYO_WIND TOKYO_PRES TOKYO_R50_DIR TOKYO_R50_LONG TOKYO_R50_SHORT TOKYO_R30_DIR TOKYO_R30_LONG TOKYO_R30_SHORT TOKYO_LAND CMA_LAT CMA_LON CMA_CAT CMA_WIND CMA_PRES HKO_LAT HKO_LON HKO_CAT HKO_WIND HKO_PRES NEWDELHI_LAT NEWDELHI_LON NEWDELHI_GRADE NEWDELHI_WIND NEWDELHI_PRES NEWDELHI_CI NEWDELHI_DP NEWDELHI_POCI REUNION_LAT REUNION_LON REUNION_TYPE REUNION_WIND REUNION_PRES REUNION_TNUM REUNION_CI REUNION_RMW REUNION_R34_NE REUNION_R34_SE REUNION_R34_SW REUNION_R34_NW REUNION_R50_NE REUNION_R50_SE REUNION_R50_SW REUNION_R50_NW REUNION_R64_NE REUNION_R64_SE REUNION_R64_SW REUNION_R64_NW BOM_LAT BOM_LON BOM_TYPE BOM_WIND BOM_PRES BOM_TNUM BOM_CI BOM_RMW BOM_R34_NE BOM_R34_SE BOM_R34_SW BOM_R34_NW BOM_R50_NE BOM_R50_SE BOM_R50_SW BOM_R50_NW BOM_R64_NE BOM_R64_SE BOM_R64_SW BOM_R64_NW BOM_ROCI BOM_POCI BOM_EYE BOM_POS_METHOD BOM_PRES_METHOD NADI_LAT NADI_LON NADI_CAT NADI_WIND NADI_PRES WELLINGTON_LAT WELLINGTON_LON WELLINGTON_WIND WELLINGTON_PRES DS824_LAT DS824_LON DS824_STAGE DS824_WIND DS824_PRES TD9636_LAT TD9636_LON TD9636_STAGE TD9636_WIND TD9636_PRES TD9635_LAT TD9635_LON TD9635_WIND TD9635_PRES TD9635_ROCI NEUMANN_LAT NEUMANN_LON NEUMANN_CLASS NEUMANN_WIND NEUMANN_PRES MLC_LAT MLC_LON MLC_CLASS MLC_WIND MLC_PRES USA_GUST BOM_GUST BOM_GUST_PER REUNION_GUST REUNION_GUST_PER USA_SEAHGT USA_SEARAD_NE USA_SEARAD_SE USA_SEARAD_SW USA_SEARAD_NW STORM_SPEED STORM_DIR
1915298N11145 1915 46 WP MM NOT_NAMED 1915-10-25 10:00:00 NR 11.0000 144.700 main 1482 1482 __________O___ -1 11.0000 144.700 7 31 285
1915298N11145 1915 46 WP MM NOT_NAMED 1915-10-25 12:00:00 NR 11.2635 143.677 main 1535 1537 __________P___ -1 11.2635 143.677 7 31 285
1915298N11145 1915 46 WP MM NOT_NAMED 1915-10-25 15:00:00 NR 11.6440 142.191 main 1543 1532 __________P___ -1 11.6440 142.191 7 29 285
1915298N11145 1915 46 WP MM NOT_NAMED 1915-10-25 18:00:00 NR 11.9954 140.842 main 1532 1515 __________P___ -1 11.9954 140.842 7 25 285
1915298N11145 1915 46 WP MM NOT_NAMED 1915-10-25 21:00:00 NR 12.3068 139.713 main 1515 1486 __________P___ -1 12.3068 139.713 7 22 286
1915298N11145 1915 46 WP MM NOT_NAMED 1915-10-25 22:00:00 NR 12.4000 139.400 main 1486 1437 __________O___ -1 12.4000 139.400 7 17 288
1915298N11145 1915 46 WP MM NOT_NAMED 1915-10-26 00:00:00 NR 12.5702 138.880 main 1437 1375 __________P___ -1 12.5702 138.880 7 14 290
1915298N11145 1915 46 WP MM NOT_NAMED 1915-10-26 03:00:00 NR 12.7965 138.309 main 1375 1335 __________P___ -1 12.7965 138.309 7 11 294
1915298N11145 1915 46 WP MM NOT_NAMED 1915-10-26 06:00:00 NR 13.0074 137.894 main 1335 1296 __________P___ -1 13.0074 137.894 7 9 299
1915298N11145 1915 46 WP MM NOT_NAMED 1915-10-26 09:00:00 NR 13.2234 137.529 main 1296 1287 __________P___ -1 13.2234 137.529 7 8 301
1915298N11145 1915 46 WP MM NOT_NAMED 1915-10-26 10:00:00 NR 13.3000 137.400 main 1287 1257 __________O___ -1 13.3000 137.400 7 10 298
1915298N11145 1915 46 WP MM NOT_NAMED 1915-10-26 12:00:00 NR 13.4584 137.068 main 1260 1211 __________P___ -1 13.4584 137.068 7 11 297
1915298N11145 1915 46 WP MM NOT_NAMED 1915-10-26 15:00:00 NR 13.7085 136.565 main 1211 1155 __________P___ -1 13.7085 136.565 7 11 298
1915298N11145 1915 46 WP MM NOT_NAMED 1915-10-26 18:00:00 NR 13.9822 136.044 main 1155 1108 __________P___ -1 13.9822 136.044 7 12 299
1915298N11145 1915 46 WP MM NOT_NAMED 1915-10-26 21:00:00 NR 14.2888 135.493 main 1108 1089 __________P___ -1 14.2888 135.493 7 13 300
1915298N11145 1915 46 WP MM NOT_NAMED 1915-10-26 22:00:00 NR 14.4000 135.300 main 1089 1052 __________O___ -1 14.4000 135.300 7 14 302
1915298N11145 1915 46 WP MM NOT_NAMED 1915-10-27 00:00:00 NR 14.6459 134.898 main 1052 1001 __________P___ -1 14.6459 134.898 7 14 303
1915298N11145 1915 46 WP MM NOT_NAMED 1915-10-27 03:00:00 NR 15.0465 134.263 main 1001 945 __________P___ -1 15.0465 134.263 7 15 303
1915298N11145 1915 46 WP MM NOT_NAMED 1915-10-27 06:00:00 NR 15.4629 133.602 main 949 899 __________P___ -1 15.4629 133.602 7 15 303
1915298N11145 1915 46 WP MM NOT_NAMED 1915-10-27 09:00:00 NR 15.8704 132.926 main 899 885 __________P___ -1 15.8704 132.926 7 15 302
1915298N11145 1915 46 WP MM NOT_NAMED 1915-10-27 10:00:00 NR 16.0000 132.700 main 885 855 __________O___ -1 16.0000 132.700 7 15 300
1915298N11145 1915 46 WP MM NOT_NAMED 1915-10-27 12:00:00 NR 16.2545 132.248 main 855 821 __________P___ -1 16.2545 132.248 7 15 300
1915298N11145 1915 46 WP MM NOT_NAMED 1915-10-27 15:00:00 NR 16.6181 131.563 main 821 773 __________P___ -1 16.6181 131.563 7 15 298
1915298N11145 1915 46 WP MM NOT_NAMED 1915-10-27 18:00:00 NR 16.9459 130.882 main 773 722 __________P___ -1 16.9459 130.882 7 14 295
1915298N11145 1915 46 WP MM NOT_NAMED 1915-10-27 21:00:00 NR 17.2221 130.216 main 722 710 __________P___ -1 17.2221 130.216 7 14 293
1915298N11145 1915 46 WP MM NOT_NAMED 1915-10-27 22:00:00 NR 17.3000 130.000 main 710 680 __________O___ -1 17.3000 130.000 7 13 290
1915298N11145 1915 46 WP MM NOT_NAMED 1915-10-28 00:00:00 NR 17.4440 129.588 main 680 643 __________P___ -1 17.4440 129.588 7 12 288
1915298N11145 1915 46 WP MM NOT_NAMED 1915-10-28 03:00:00 NR 17.6103 128.989 main 643 603 __________P___ -1 17.6103 128.989 7 12 284
1915298N11145 1915 46 WP MM NOT_NAMED 1915-10-28 06:00:00 NR 17.7229 128.399 main 603 566 __________P___ -1 17.7229 128.399 7 11 279
1915298N11145 1915 46 WP MM NOT_NAMED 1915-10-28 09:00:00 NR 17.7879 127.803 main 566 548 __________P___ -1 17.7879 127.803 7 11 276
1915298N11145 1915 46 WP MM NOT_NAMED 1915-10-28 10:00:00 NR 17.8000 127.600 main 548 496 __________O___ -1 17.8000 127.600 3 13 273
1915298N11145 1915 46 WP MM NOT_NAMED 1915-10-28 12:00:00 NR 17.8180 127.141 main 496 423 __________P___ -1 17.8180 127.141 3 13 270
1915298N11145 1915 46 WP MM NOT_NAMED 1915-10-28 15:00:00 NR 17.8072 126.439 main 423 361 __________P___ -1 17.8072 126.439 3 13 268
1915298N11145 1915 46 WP MM NOT_NAMED 1915-10-28 18:00:00 NR 17.7669 125.766 main 361 297 __________P___ -1 17.7669 125.766 3 12 266
1915298N11145 1915 46 WP MM NOT_NAMED 1915-10-28 21:00:00 NR 17.7160 125.172 main 297 276 __________P___ -1 17.7160 125.172 3 11 265
1915298N11145 1915 46 WP MM NOT_NAMED 1915-10-28 22:00:00 NR 17.7000 125.000 main 276 246 __________O___ -1 17.7000 125.000 4 9 264
1915298N11145 1915 46 WP MM NOT_NAMED 1915-10-29 00:00:00 NR 17.6719 124.720 main 246 212 __________P___ -1 17.6719 124.720 4 7 263
1915298N11145 1915 46 WP MM NOT_NAMED 1915-10-29 03:00:00 NR 17.6303 124.388 main 212 182 __________P___ -1 17.6303 124.388 4 6 263
1915298N11145 1915 46 WP MM NOT_NAMED 1915-10-29 06:00:00 NR 17.6005 124.124 main 182 162 __________P___ -1 17.6005 124.124 4 5 266
1915298N11145 1915 46 WP MM NOT_NAMED 1915-10-29 09:00:00 NR 17.5946 123.883 main 162 152 __________P___ -1 17.5946 123.883 4 5 270
1915298N11145 1915 46 WP MM NOT_NAMED 1915-10-29 10:00:00 NR 17.6000 123.800 main 152 131 __________O___ -1 17.6000 123.800 4 5 275
1915298N11145 1915 46 WP MM NOT_NAMED 1915-10-29 12:00:00 NR 17.6166 123.597 main 131 105 __________P___ -1 17.6166 123.597 4 6 278
1915298N11145 1915 46 WP MM NOT_NAMED 1915-10-29 15:00:00 NR 17.6666 123.293 main 105 77 __________P___ -1 17.6666 123.293 4 6 283
1915298N11145 1915 46 WP MM NOT_NAMED 1915-10-29 18:00:00 NR 17.7466 122.992 main 77 57 __________P___ -1 17.7466 122.992 4 6 289
1915298N11145 1915 46 WP MM NOT_NAMED 1915-10-29 21:00:00 NR 17.8566 122.697 main 57 47 __________P___ -1 17.8566 122.697 4 6 292
1915298N11145 1915 46 WP MM NOT_NAMED 1915-10-29 22:00:00 NR 17.9000 122.600 main 47 23 __________O___ -1 17.9000 122.600 4 6 296
1915298N11145 1915 46 WP MM NOT_NAMED 1915-10-30 00:00:00 NR 17.9884 122.414 main 23 0 __________P___ -1 17.9884 122.414 4 6 299
1915298N11145 1915 46 WP MM NOT_NAMED 1915-10-30 03:00:00 NR 18.1463 122.140 main 0 0 __________P___ -1 18.1463 122.140 4 6 303
1915298N11145 1915 46 WP MM NOT_NAMED 1915-10-30 06:00:00 NR 18.3289 121.869 main 0 0 __________P___ -1 18.3289 121.869 4 6 306
1915298N11145 1915 46 WP MM NOT_NAMED 1915-10-30 09:00:00 NR 18.5300 121.594 main 11 11 __________P___ -1 18.5300 121.594 4 7 308
1915298N11145 1915 46 WP MM NOT_NAMED 1915-10-30 10:00:00 NR 18.6000 121.500 main 15 11 __________O___ -1 18.6000 121.500 4 7 309
1915298N11145 1915 46 WP MM NOT_NAMED 1915-10-30 12:00:00 NR 18.7463 121.311 main 22 33 __________P___ -1 18.7463 121.311 4 7 310
1915298N11145 1915 46 WP MM NOT_NAMED 1915-10-30 15:00:00 NR 18.9787 121.021 main 45 44 __________P___ -1 18.9787 121.021 4 7 310
1915298N11145 1915 46 WP MM NOT_NAMED 1915-10-30 18:00:00 NR 19.2126 120.721 main 67 67 __________P___ -1 19.2126 120.721 4 7 308
1915298N11145 1915 46 WP MM NOT_NAMED 1915-10-30 21:00:00 NR 19.4325 120.408 main 98 98 __________P___ -1 19.4325 120.408 4 7 306
1915298N11145 1915 46 WP MM NOT_NAMED 1915-10-30 22:00:00 NR 19.5000 120.300 main 113 113 __________O___ -1 19.5000 120.300 4 8 305
1915298N11145 1915 46 WP MM NOT_NAMED 1915-10-31 00:00:00 NR 19.6459 120.081 main 133 143 __________P___ -1 19.6459 120.081 4 8 303
1915298N11145 1915 46 WP MM NOT_NAMED 1915-10-31 03:00:00 NR 19.8465 119.740 main 177 185 __________P___ -1 19.8465 119.740 4 7 299
1915298N11145 1915 46 WP MM NOT_NAMED 1915-10-31 06:00:00 NR 20.0030 119.386 main 214 214 __________P___ -1 20.0030 119.386 4 7 290
1915298N11145 1915 46 WP MM NOT_NAMED 1915-10-31 09:00:00 NR 20.0905 119.023 main 252 252 __________P___ -1 20.0905 119.023 4 7 282
1915298N11145 1915 46 WP MM NOT_NAMED 1915-10-31 10:00:00 NR 20.1000 118.900 main 260 260 __________O___ -1 20.1000 118.900 4 7 269
1915298N11145 1915 46 WP MM NOT_NAMED 1915-10-31 12:00:00 NR 20.0865 118.653 main 275 283 __________P___ -1 20.0865 118.653 4 7 260
1915298N11145 1915 46 WP MM NOT_NAMED 1915-10-31 15:00:00 NR 19.9974 118.279 main 300 300 __________P___ -1 19.9974 118.279 4 7 251
1915298N11145 1915 46 WP MM NOT_NAMED 1915-10-31 18:00:00 NR 19.8483 117.903 main 324 324 __________P___ -1 19.8483 117.903 4 8 245
1915298N11145 1915 46 WP MM NOT_NAMED 1915-10-31 21:00:00 NR 19.6646 117.526 main 356 352 __________P___ -1 19.6646 117.526 4 8 242
1915298N11145 1915 46 WP MM NOT_NAMED 1915-10-31 22:00:00 NR 19.6000 117.400 main 362 __________O___ -1 19.6000 117.400 7 8 242

デジタル台風データ・検索

IBTrACS Databaseについて

本データベースは、米国NOAAが公開する1842年以降の世界の熱帯低気圧のベストトラックデータアーカイブInternational Best Track Archive for Climate Stewardship (IBTrACS)を、ウェブで閲覧しやすい形式に変換したものです。

最終更新日:2021-10-21